Time;durP1;ratioP1;P1;durP2;ratioP2;P2;SDS_P1;SDS_P2;PMS_P1;PMS_P2;Temp;Humidity;BMP_temperature;BMP_pressure;BME280_temperature;BME280_humidity;BME280_pressure;Samples;Min_cycle;Max_cycle;Signal;HPM_P1;HPM_P2
2022/10/14 00:01:58;;;;;;;;;;;;;;;9.31;80.43;100070.34;5050911;28;2110;-79
2022/10/14 00:04:25;;;;;;;;;;;;;;;9.32;80.65;100072.00;5076862;28;2836;-77
2022/10/14 00:06:51;;;;;;;;;;;;;;;9.31;80.50;100064.97;5064767;28;1852;-78
2022/10/14 00:09:18;;;;;;;;;;;;;;;9.31;80.55;100064.97;5071085;28;1696;-79
2022/10/14 00:11:44;;;;;;;;;;;;;;;9.31;80.57;100066.84;5082425;28;2097;-78
2022/10/14 00:14:11;;;;;;;;;;;;;;;9.31;80.37;100064.97;5093360;28;1902;-78
2022/10/14 00:16:37;;;;;;;;;;;;;;;9.30;80.38;100057.97;5062413;28;1924;-77
2022/10/14 00:19:04;;;;;;;;;;;;;;;9.32;80.60;100061.25;5072340;28;2215;-79
2022/10/14 00:21:30;;;;;;;;;;;;;;;9.30;80.20;100057.97;5060336;28;1949;-79
2022/10/14 00:23:57;;;;;;;;;;;;;;;9.31;80.14;100045.34;5068737;28;2073;-77
2022/10/14 00:26:23;;;;;;;;;;;;;;;9.30;80.32;100049.09;5072412;28;1817;-78
2022/10/14 00:28:50;;;;;;;;;;;;;;;9.31;80.22;100050.72;5069813;28;2133;-78
2022/10/14 00:31:16;;;;;;;;;;;;;;;9.30;80.31;100052.59;5070258;28;2047;-78
2022/10/14 00:33:43;;;;;;;;;;;;;;;9.30;80.43;100047.22;5070877;28;1752;-78
2022/10/14 00:36:10;;;;;;;;;;;;;;;9.30;80.23;100052.59;5062905;28;1977;-77
2022/10/14 00:38:36;;;;;;;;;;;;;;;9.30;80.61;100051.78;5061186;28;1945;-77
2022/10/14 00:41:03;;;;;;;;;;;;;;;9.30;80.64;100052.59;5077045;28;1940;-78
2022/10/14 00:43:29;;;;;;;;;;;;;;;9.29;80.50;100042.91;5056968;28;2187;-78
2022/10/14 00:45:56;;;;;;;;;;;;;;;9.29;80.72;100048.28;5069249;28;1724;-78
2022/10/14 00:48:22;;;;;;;;;;;;;;;9.30;80.67;100049.91;5100351;23;3654;-78
2022/10/14 00:50:49;;;;;;;;;;;;;;;9.29;80.53;100044.72;5035777;28;1943;-78
2022/10/14 00:53:16;;;;;;;;;;;;;;;9.29;80.49;100042.91;5035515;28;1449;-78
2022/10/14 00:55:42;;;;;;;;;;;;;;;9.28;80.27;100038.53;5031217;28;1651;-78
2022/10/14 00:58:09;;;;;;;;;;;;;;;9.29;80.52;100033.97;5033747;28;2156;-78
2022/10/14 01:00:35;;;;;;;;;;;;;;;9.29;80.47;100039.34;5027282;28;1993;-77
2022/10/14 01:03:02;;;;;;;;;;;;;;;9.30;80.47;100046.41;5033810;28;2146;-77
2022/10/14 01:05:28;;;;;;;;;;;;;;;9.30;80.51;100043.72;5027074;28;2033;-78
2022/10/14 01:07:55;;;;;;;;;;;;;;;9.29;80.41;100033.97;5033617;28;1980;-77
2022/10/14 01:10:21;;;;;;;;;;;;;;;9.29;80.26;100034.84;5034095;28;1659;-77
2022/10/14 01:12:48;;;;;;;;;;;;;;;9.30;80.10;100038.34;5026423;28;2033;-77
2022/10/14 01:15:15;;;;;;;;;;;;;;;9.30;80.27;100035.66;5028779;28;1860;-77
2022/10/14 01:17:42;;;;;;;;;;;;;;;9.28;80.10;100033.16;5034642;28;1918;-77
2022/10/14 01:20:08;;;;;;;;;;;;;;;9.29;80.21;100039.34;5017865;28;2003;-77
2022/10/14 01:22:35;;;;;;;;;;;;;;;9.28;79.98;100035.84;5035802;28;2001;-77
2022/10/14 01:25:01;;;;;;;;;;;;;;;9.29;79.67;100036.69;5034817;28;1837;-77
2022/10/14 01:27:28;;;;;;;;;;;;;;;9.29;79.72;100040.22;5033085;28;2188;-78
2022/10/14 01:29:54;;;;;;;;;;;;;;;9.29;79.25;100040.22;5043097;28;2024;-77
2022/10/14 01:32:21;;;;;;;;;;;;;;;9.29;79.61;100042.91;5046777;28;1715;-78
2022/10/14 01:34:47;;;;;;;;;;;;;;;9.29;79.40;100039.34;5027304;28;1916;-77
2022/10/14 01:37:14;;;;;;;;;;;;;;;9.29;79.26;100039.34;5028976;28;1918;-77
2022/10/14 01:39:40;;;;;;;;;;;;;;;9.30;79.38;100038.34;5034324;28;1647;-78
2022/10/14 01:42:07;;;;;;;;;;;;;;;9.29;79.22;100040.22;5021109;28;1895;-77
2022/10/14 01:44:33;;;;;;;;;;;;;;;9.29;79.37;100050.97;5028500;28;1974;-77
2022/10/14 01:47:00;;;;;;;;;;;;;;;9.30;79.12;100041.84;5032682;28;1718;-77
2022/10/14 01:49:27;;;;;;;;;;;;;;;9.29;79.09;100040.22;5034752;28;1920;-77
2022/10/14 01:51:53;;;;;;;;;;;;;;;9.30;79.11;100041.03;5034709;28;1659;-78
2022/10/14 01:54:20;;;;;;;;;;;;;;;9.29;79.03;100044.72;5035128;28;1924;-77
2022/10/14 01:56:46;;;;;;;;;;;;;;;9.29;79.15;100034.84;5031501;28;2139;-77
2022/10/14 01:59:13;;;;;;;;;;;;;;;9.29;78.91;100039.34;5026435;28;2049;-77
2022/10/14 02:01:39;;;;;;;;;;;;;;;9.29;79.09;100033.97;5029487;28;1831;-77
2022/10/14 02:04:06;;;;;;;;;;;;;;;9.29;78.62;100034.84;5033671;28;1708;-77
2022/10/14 02:06:32;;;;;;;;;;;;;;;9.28;78.90;100030.47;5027517;28;3773;-77
2022/10/14 02:08:59;;;;;;;;;;;;;;;9.29;78.83;100017.88;5032180;28;1730;-77
2022/10/14 02:11:25;;;;;;;;;;;;;;;9.29;78.76;100018.72;5030218;28;3683;-77
2022/10/14 02:13:52;;;;;;;;;;;;;;;9.29;78.77;100018.72;5031708;28;2199;-77
2022/10/14 02:16:18;;;;;;;;;;;;;;;9.29;78.84;100013.34;5009062;28;2001;-77
2022/10/14 02:18:45;;;;;;;;;;;;;;;9.29;78.93;100016.03;5010459;28;1830;-78
2022/10/14 02:21:11;;;;;;;;;;;;;;;9.29;78.58;100021.41;5019762;28;1569;-77
2022/10/14 02:23:38;;;;;;;;;;;;;;;9.28;78.69;100017.03;5010050;28;3596;-78
2022/10/14 02:26:05;;;;;;;;;;;;;;;9.29;78.81;100024.09;5011322;28;1970;-77
2022/10/14 02:28:31;;;;;;;;;;;;;;;9.28;78.85;100022.41;5007923;28;1954;-78
2022/10/14 02:30:58;;;;;;;;;;;;;;;9.29;78.50;100013.34;5011572;28;1710;-77
2022/10/14 02:33:24;;;;;;;;;;;;;;;8.94;78.58;99948.63;5023199;28;2600;-77
2022/10/14 02:35:51;;;;;;;;;;;;;;;9.29;78.58;100016.03;5016482;28;2919;-77
2022/10/14 02:38:17;;;;;;;;;;;;;;;9.28;78.74;100011.66;5011343;28;1978;-77
2022/10/14 02:40:44;;;;;;;;;;;;;;;9.28;78.70;100003.63;5016506;28;1890;-77
2022/10/14 02:43:10;;;;;;;;;;;;;;;9.28;78.48;100011.66;5005731;28;1964;-78
2022/10/14 02:45:37;;;;;;;;;;;;;;;9.28;78.55;100006.28;5011296;28;1960;-78
2022/10/14 02:48:03;;;;;;;;;;;;;;;9.28;78.53;99998.25;5008933;28;1723;-77
2022/10/14 02:50:30;;;;;;;;;;;;;;;9.28;78.45;100000.91;5020254;28;1556;-77
2022/10/14 02:52:57;;;;;;;;;;;;;;;9.29;78.44;99999.06;5010416;28;1815;-78
2022/10/14 02:55:23;;;;;;;;;;;;;;;9.29;78.69;100001.75;5011669;28;1871;-78
2022/10/14 02:57:50;;;;;;;;;;;;;;;9.29;78.52;100007.13;5010227;28;1914;-78
2022/10/14 03:00:16;;;;;;;;;;;;;;;9.29;78.58;99999.91;5006291;28;2074;-78
2022/10/14 03:02:43;;;;;;;;;;;;;;;9.28;78.53;100000.91;5032514;28;1981;-77
2022/10/14 03:05:09;;;;;;;;;;;;;;;9.28;78.70;100002.78;5010422;28;1912;-78
2022/10/14 03:07:36;;;;;;;;;;;;;;;9.27;78.96;100001.97;5009741;28;1694;-76
2022/10/14 03:10:02;;;;;;;;;;;;;;;9.26;78.54;100003.00;5012793;28;1890;-78
2022/10/14 03:12:29;;;;;;;;;;;;;;;9.27;78.72;100003.84;5010496;28;2018;-78
2022/10/14 03:14:55;;;;;;;;;;;;;;;9.27;79.01;100011.91;5019006;28;1709;-78
2022/10/14 03:17:22;;;;;;;;;;;;;;;9.28;79.05;100005.47;5009060;28;1902;-78
2022/10/14 03:19:49;;;;;;;;;;;;;;;9.26;79.27;100003.00;5013895;28;1936;-78
2022/10/14 03:22:15;;;;;;;;;;;;;;;9.27;79.11;100001.16;5019670;28;1611;-77
2022/10/14 03:24:42;;;;;;;;;;;;;;;9.27;79.02;100003.84;5011349;28;1923;-78
2022/10/14 03:27:08;;;;;;;;;;;;;;;9.27;79.15;99993.09;5013220;28;1702;-77
2022/10/14 03:29:35;;;;;;;;;;;;;;;9.27;79.10;99999.28;5009367;28;2260;-78
2022/10/14 03:32:02;;;;;;;;;;;;;;;9.26;79.03;100004.88;5012539;28;1742;-78
2022/10/14 03:34:28;;;;;;;;;;;;;;;9.26;78.95;100008.38;5016179;28;1666;-77
2022/10/14 03:36:55;;;;;;;;;;;;;;;9.25;79.00;100004.06;5023254;28;2016;-78
2022/10/14 03:39:21;;;;;;;;;;;;;;;9.26;79.11;99997.63;5017145;28;1777;-78
2022/10/14 03:41:48;;;;;;;;;;;;;;;9.26;78.87;99999.50;5020902;28;1731;-77
2022/10/14 03:44:14;;;;;;;;;;;;;;;9.26;78.81;99994.13;5009928;28;1857;-78
2022/10/14 03:46:41;;;;;;;;;;;;;;;9.26;79.29;99997.63;5011072;28;3432;-77
2022/10/14 03:49:07;;;;;;;;;;;;;;;9.26;78.86;99992.25;5019746;28;3503;-77
2022/10/14 03:51:34;;;;;;;;;;;;;;;9.27;79.21;99993.91;5008641;28;1734;-77
2022/10/14 03:54:01;;;;;;;;;;;;;;;9.26;78.98;99992.25;5014185;28;3313;-78
2022/10/14 03:56:27;;;;;;;;;;;;;;;9.26;79.11;100004.88;5012925;28;1996;-78
2022/10/14 03:58:54;;;;;;;;;;;;;;;9.26;79.03;100000.31;5018015;28;1942;-77
2022/10/14 04:01:20;;;;;;;;;;;;;;;9.26;79.31;99994.94;5010584;28;1907;-78
2022/10/14 04:03:47;;;;;;;;;;;;;;;9.26;78.86;99994.13;5015625;28;1950;-77
2022/10/14 04:06:14;;;;;;;;;;;;;;;9.26;79.16;99994.13;5012257;28;2460;-77
2022/10/14 04:08:40;;;;;;;;;;;;;;;9.25;79.14;99992.50;5010733;28;1694;-79
2022/10/14 04:11:07;;;;;;;;;;;;;;;9.25;78.50;99984.44;5010701;28;2311;-79
2022/10/14 04:13:35;;;;;;;;;;;;;;;9.25;78.91;99987.13;5010409;28;1916;-78
2022/10/14 04:16:01;;;;;;;;;;;;;;;9.26;79.13;99988.75;5028142;28;1869;-77
2022/10/14 04:18:28;;;;;;;;;;;;;;;9.25;78.89;99987.13;5034078;28;1903;-78
2022/10/14 04:20:54;;;;;;;;;;;;;;;9.25;78.76;99987.94;5035761;28;1682;-78
2022/10/14 04:23:21;;;;;;;;;;;;;;;9.25;78.80;99987.94;5026926;28;1726;-78
2022/10/14 04:25:47;;;;;;;;;;;;;;;9.26;78.70;99983.38;5016360;28;1928;-77
2022/10/14 04:28:14;;;;;;;;;;;;;;;9.25;78.77;99981.75;5029447;28;1921;-76
2022/10/14 04:30:41;;;;;;;;;;;;;;;9.24;78.73;99983.63;5032649;28;1683;-76
2022/10/14 04:33:07;;;;;;;;;;;;;;;9.25;78.83;99979.88;5033396;28;1738;-77
2022/10/14 04:35:33;;;;;;;;;;;;;;;9.25;78.55;99974.50;5041150;28;4861;-77
2022/10/14 04:38:00;;;;;;;;;;;;;;;9.25;78.43;99976.38;5027720;28;3680;-77
2022/10/14 04:40:27;;;;;;;;;;;;;;;9.25;78.76;99973.69;5024325;28;2155;-77
2022/10/14 04:42:53;;;;;;;;;;;;;;;9.25;78.60;99977.19;5034075;28;4160;-78
2022/10/14 04:45:20;;;;;;;;;;;;;;;9.25;78.60;99976.38;5031022;28;2055;-78
2022/10/14 04:47:46;;;;;;;;;;;;;;;9.24;78.73;99975.56;5031942;28;1992;-77
2022/10/14 04:50:13;;;;;;;;;;;;;;;9.25;78.24;99979.06;5034539;28;1639;-76
2022/10/14 04:52:39;;;;;;;;;;;;;;;9.24;78.31;99980.94;5035753;28;1645;-77
2022/10/14 04:55:06;;;;;;;;;;;;;;;9.25;78.55;99973.69;5010612;28;3596;-78
2022/10/14 04:57:32;;;;;;;;;;;;;;;9.24;78.12;99967.50;5011568;28;1906;-76
2022/10/14 04:59:59;;;;;;;;;;;;;;;9.24;78.25;99970.19;5009456;28;1868;-77
2022/10/14 05:02:25;;;;;;;;;;;;;;;9.25;78.25;99971.81;5010903;28;2098;-77
2022/10/14 05:04:52;;;;;;;;;;;;;;;9.25;78.27;99963.75;5020758;28;2835;-79
2022/10/14 05:07:19;;;;;;;;;;;;;;;8.91;78.33;99905.25;5012523;28;1810;-76
2022/10/14 05:09:45;;;;;;;;;;;;;;;9.25;78.38;99968.31;5006525;28;2088;-78
2022/10/14 05:12:13;;;;;;;;;;;;;;;9.24;78.04;99966.69;5011841;28;1771;-78
2022/10/14 05:14:39;;;;;;;;;;;;;;;9.25;78.20;99968.31;5005587;28;1758;-77
2022/10/14 05:17:06;;;;;;;;;;;;;;;9.24;78.08;99969.38;5007344;28;1906;-79
2022/10/14 05:19:32;;;;;;;;;;;;;;;9.26;78.20;99967.25;5008325;28;1851;-76
2022/10/14 05:21:59;;;;;;;;;;;;;;;9.25;78.31;99962.94;5007773;28;2088;-77
2022/10/14 05:24:25;;;;;;;;;;;;;;;9.25;78.39;99960.25;5008032;28;1818;-77
2022/10/14 05:26:52;;;;;;;;;;;;;;;9.25;78.03;99962.94;5023495;28;1781;-76
2022/10/14 05:29:19;;;;;;;;;;;;;;;9.24;78.20;99964.81;5005687;28;1688;-77
2022/10/14 05:31:45;;;;;;;;;;;;;;;9.25;78.03;99963.75;5006721;28;1955;-77
2022/10/14 05:34:12;;;;;;;;;;;;;;;9.25;78.19;99968.31;5008177;28;1752;-77
2022/10/14 05:36:38;;;;;;;;;;;;;;;9.25;78.05;99965.63;5004735;28;2111;-78
2022/10/14 05:39:05;;;;;;;;;;;;;;;9.24;78.29;99964.00;5017579;28;2093;-77
2022/10/14 05:41:31;;;;;;;;;;;;;;;9.25;78.38;99957.56;5021330;28;1491;-79
2022/10/14 05:43:58;;;;;;;;;;;;;;;9.25;78.25;99962.94;5012796;28;1667;-76
2022/10/14 05:46:24;;;;;;;;;;;;;;;9.24;78.23;99964.00;5023466;28;2137;-77
2022/10/14 05:48:51;;;;;;;;;;;;;;;9.24;78.11;99962.13;5012543;28;1660;-78
2022/10/14 05:51:20;;;;;;;;;;;;;;;9.25;78.26;99962.94;5011437;28;2297;-78
2022/10/14 05:53:46;;;;;;;;;;;;;;;9.24;77.86;99962.13;5017012;28;2033;-76
2022/10/14 05:56:13;;;;;;;;;;;;;;;9.24;78.11;99962.13;5020042;28;1878;-77
2022/10/14 05:58:39;;;;;;;;;;;;;;;9.26;77.91;99967.25;5018633;28;1910;-75
2022/10/14 06:01:06;;;;;;;;;;;;;;;9.25;78.16;99966.44;5020092;28;2125;-74
2022/10/14 06:03:32;;;;;;;;;;;;;;;9.25;78.06;99960.25;5028594;28;1691;-76
2022/10/14 06:05:59;;;;;;;;;;;;;;;9.24;78.17;99962.13;5028207;28;1879;-78
2022/10/14 06:08:26;;;;;;;;;;;;;;;9.25;77.88;99957.56;5026339;28;2566;-78
2022/10/14 06:10:53;;;;;;;;;;;;;;;9.27;77.86;99959.00;5029999;28;4779;-78
2022/10/14 06:13:19;;;;;;;;;;;;;;;9.25;77.78;99953.00;5020772;28;5364;-76
2022/10/14 06:15:46;;;;;;;;;;;;;;;9.27;77.77;99953.63;5028566;28;2249;-78
2022/10/14 06:18:12;;;;;;;;;;;;;;;9.31;77.43;99946.72;5019397;28;3723;-76
2022/10/14 06:20:39;;;;;;;;;;;;;;;9.28;77.76;99952.56;5041138;28;2341;-77
2022/10/14 06:23:05;;;;;;;;;;;;;;;9.28;77.71;99954.44;5039750;28;4415;-77
2022/10/14 06:25:32;;;;;;;;;;;;;;;9.33;77.40;99951.88;5033054;28;2408;-76
2022/10/14 06:27:58;;;;;;;;;;;;;;;9.30;77.48;99955.84;5034772;28;1813;-75
2022/10/14 06:30:25;;;;;;;;;;;;;;;9.31;77.38;99953.97;5030337;28;2128;-75
2022/10/14 06:32:51;;;;;;;;;;;;;;;9.30;77.45;99957.72;5026116;28;2143;-75
2022/10/14 06:35:18;;;;;;;;;;;;;;;9.26;77.69;99957.31;5020921;28;2160;-75
2022/10/14 06:37:44;;;;;;;;;;;;;;;9.28;77.80;99960.63;5024819;28;2061;-76
2022/10/14 06:40:11;;;;;;;;;;;;;;;9.31;77.66;99960.16;5022244;28;1991;-77
2022/10/14 06:42:38;;;;;;;;;;;;;;;9.27;77.81;99963.53;5021873;28;1740;-75
2022/10/14 06:45:04;;;;;;;;;;;;;;;9.33;77.55;99968.84;5025208;28;1789;-78
2022/10/14 06:47:30;;;;;;;;;;;;;;;9.33;77.50;99966.13;5021069;28;2097;-77
2022/10/14 06:49:57;;;;;;;;;;;;;;;9.33;77.57;99949.19;5023877;28;1678;-77
2022/10/14 06:52:24;;;;;;;;;;;;;;;9.30;77.52;99960.41;5015739;28;1799;-77
2022/10/14 06:54:50;;;;;;;;;;;;;;;9.27;77.71;99960.84;5018462;28;4568;-76
2022/10/14 06:57:17;;;;;;;;;;;;;;;9.31;77.66;99953.97;5021675;28;2060;-77
2022/10/14 06:59:43;;;;;;;;;;;;;;;9.29;77.64;99958.75;5021742;28;4298;-76
2022/10/14 07:02:10;;;;;;;;;;;;;;;9.32;77.54;99951.06;5013695;28;2331;-78
2022/10/14 07:04:36;;;;;;;;;;;;;;;9.29;77.68;99954.22;5011221;28;1798;-77
2022/10/14 07:07:03;;;;;;;;;;;;;;;9.33;77.57;99957.25;5013627;28;1799;-77
2022/10/14 07:09:29;;;;;;;;;;;;;;;9.37;77.41;99949.56;5009044;28;2123;-77
2022/10/14 07:11:56;;;;;;;;;;;;;;;9.27;77.31;99948.25;5003229;28;3554;-77
2022/10/14 07:14:22;;;;;;;;;;;;;;;9.27;77.66;99955.47;5003603;28;1915;-76
2022/10/14 07:16:49;;;;;;;;;;;;;;;9.35;77.48;99952.47;5010869;28;1941;-77
2022/10/14 07:19:15;;;;;;;;;;;;;;;9.36;77.12;99948.75;5007091;28;1922;-76
2022/10/14 07:21:44;;;;;;;;;;;;;;;9.42;77.09;99957.78;5009291;28;1909;-79
2022/10/14 07:24:10;;;;;;;;;;;;;;;9.55;76.42;99955.72;5003802;28;2824;-78
2022/10/14 07:26:37;;;;;;;;;;;;;;;9.64;76.34;99953.53;5001886;28;2344;-77
2022/10/14 07:29:03;;;;;;;;;;;;;;;9.58;76.24;99959.81;5003562;28;1775;-76
2022/10/14 07:31:30;;;;;;;;;;;;;;;9.47;76.87;99957.91;5004404;28;1759;-76
2022/10/14 07:33:56;;;;;;;;;;;;;;;9.47;76.82;99964.13;5009277;28;1726;-76
2022/10/14 07:36:23;;;;;;;;;;;;;;;9.37;77.15;99963.81;5032708;28;2047;-76
2022/10/14 07:38:52;;;;;;;;;;;;;;;9.65;76.24;99967.81;5010789;28;4272;-76
2022/10/14 07:41:21;;;;;;;;;;;;;;;9.44;76.91;99963.72;5021075;28;4524;-76
2022/10/14 07:44:13;;;;;;;;;;;;;;;9.37;77.22;99961.13;5016965;28;2804;-76
2022/10/14 07:47:04;;;;;;;;;;;;;;;9.43;76.81;99967.47;5017346;28;1917;-78
2022/10/14 07:49:56;;;;;;;;;;;;;;;9.42;76.85;99963.97;5032450;28;1700;-76
2022/10/14 07:52:48;;;;;;;;;;;;;;;9.68;75.74;99954.72;5030650;28;1891;-76
